sensor_id;sensor_type;location;lat;lon;timestamp;P1;durP1;ratioP1;P2;durP2;ratioP2
17790;SDS011;9019;48.132;-1.210;2023-04-01T00:01:01;12.90;;;2.00;;
17790;SDS011;9019;48.132;-1.210;2023-04-01T00:03:30;9.20;;;2.00;;
17790;SDS011;9019;48.132;-1.210;2023-04-01T00:05:58;11.97;;;1.87;;
17790;SDS011;9019;48.132;-1.210;2023-04-01T00:08:26;10.60;;;1.70;;
17790;SDS011;9019;48.132;-1.210;2023-04-01T00:10:53;10.23;;;2.43;;
17790;SDS011;9019;48.132;-1.210;2023-04-01T00:13:22;12.87;;;2.57;;
17790;SDS011;9019;48.132;-1.210;2023-04-01T00:15:50;10.10;;;1.63;;
17790;SDS011;9019;48.132;-1.210;2023-04-01T00:18:18;7.77;;;1.50;;
17790;SDS011;9019;48.132;-1.210;2023-04-01T00:20:47;8.53;;;1.77;;
17790;SDS011;9019;48.132;-1.210;2023-04-01T00:23:14;12.00;;;2.07;;
17790;SDS011;9019;48.132;-1.210;2023-04-01T00:25:42;9.83;;;1.93;;
17790;SDS011;9019;48.132;-1.210;2023-04-01T00:28:09;12.60;;;2.13;;
17790;SDS011;9019;48.132;-1.210;2023-04-01T00:30:36;11.53;;;1.90;;
17790;SDS011;9019;48.132;-1.210;2023-04-01T00:33:03;16.17;;;2.60;;
17790;SDS011;9019;48.132;-1.210;2023-04-01T00:35:31;11.47;;;2.07;;
17790;SDS011;9019;48.132;-1.210;2023-04-01T00:37:59;17.53;;;2.37;;
17790;SDS011;9019;48.132;-1.210;2023-04-01T00:40:27;15.20;;;2.77;;
17790;SDS011;9019;48.132;-1.210;2023-04-01T00:42:55;14.33;;;2.50;;
17790;SDS011;9019;48.132;-1.210;2023-04-01T00:45:23;15.40;;;2.63;;
17790;SDS011;9019;48.132;-1.210;2023-04-01T00:47:52;12.80;;;2.20;;
17790;SDS011;9019;48.132;-1.210;2023-04-01T00:50:19;11.33;;;2.17;;
17790;SDS011;9019;48.132;-1.210;2023-04-01T00:52:46;11.47;;;2.17;;
17790;SDS011;9019;48.132;-1.210;2023-04-01T00:55:15;17.73;;;2.67;;
17790;SDS011;9019;48.132;-1.210;2023-04-01T00:57:43;13.57;;;2.13;;
17790;SDS011;9019;48.132;-1.210;2023-04-01T01:00:12;14.93;;;2.50;;
17790;SDS011;9019;48.132;-1.210;2023-04-01T01:02:40;12.17;;;2.23;;
17790;SDS011;9019;48.132;-1.210;2023-04-01T01:05:08;15.07;;;2.67;;
17790;SDS011;9019;48.132;-1.210;2023-04-01T01:07:36;15.33;;;2.33;;
17790;SDS011;9019;48.132;-1.210;2023-04-01T01:10:07;13.07;;;2.37;;
17790;SDS011;9019;48.132;-1.210;2023-04-01T01:12:39;16.97;;;3.13;;
17790;SDS011;9019;48.132;-1.210;2023-04-01T01:15:08;10.37;;;2.17;;
17790;SDS011;9019;48.132;-1.210;2023-04-01T01:17:41;14.50;;;2.13;;
17790;SDS011;9019;48.132;-1.210;2023-04-01T01:20:15;16.93;;;2.50;;
17790;SDS011;9019;48.132;-1.210;2023-04-01T01:23:01;15.63;;;2.67;;
17790;SDS011;9019;48.132;-1.210;2023-04-01T01:25:34;14.97;;;2.33;;
17790;SDS011;9019;48.132;-1.210;2023-04-01T01:28:13;11.90;;;2.23;;
17790;SDS011;9019;48.132;-1.210;2023-04-01T01:30:45;14.73;;;2.63;;
17790;SDS011;9019;48.132;-1.210;2023-04-01T01:33:34;15.43;;;2.43;;
17790;SDS011;9019;48.132;-1.210;2023-04-01T01:36:04;15.40;;;2.50;;
17790;SDS011;9019;48.132;-1.210;2023-04-01T01:38:32;14.43;;;2.90;;
17790;SDS011;9019;48.132;-1.210;2023-04-01T01:41:00;12.77;;;2.07;;
17790;SDS011;9019;48.132;-1.210;2023-04-01T01:43:29;9.37;;;2.00;;
17790;SDS011;9019;48.132;-1.210;2023-04-01T01:45:57;13.30;;;2.10;;
17790;SDS011;9019;48.132;-1.210;2023-04-01T01:48:26;15.00;;;2.50;;
17790;SDS011;9019;48.132;-1.210;2023-04-01T01:50:54;9.87;;;1.97;;
17790;SDS011;9019;48.132;-1.210;2023-04-01T01:53:23;9.67;;;1.83;;
17790;SDS011;9019;48.132;-1.210;2023-04-01T01:55:50;13.90;;;2.33;;
17790;SDS011;9019;48.132;-1.210;2023-04-01T01:58:18;18.23;;;2.67;;
17790;SDS011;9019;48.132;-1.210;2023-04-01T02:00:47;18.00;;;2.60;;
17790;SDS011;9019;48.132;-1.210;2023-04-01T02:03:15;9.90;;;2.07;;
17790;SDS011;9019;48.132;-1.210;2023-04-01T02:05:44;13.43;;;2.50;;
17790;SDS011;9019;48.132;-1.210;2023-04-01T02:08:12;12.90;;;2.33;;
17790;SDS011;9019;48.132;-1.210;2023-04-01T02:10:42;15.07;;;2.60;;
17790;SDS011;9019;48.132;-1.210;2023-04-01T02:13:11;15.33;;;2.43;;
17790;SDS011;9019;48.132;-1.210;2023-04-01T02:15:42;18.03;;;2.50;;
17790;SDS011;9019;48.132;-1.210;2023-04-01T02:18:11;12.67;;;2.07;;
17790;SDS011;9019;48.132;-1.210;2023-04-01T02:20:40;12.43;;;2.23;;
17790;SDS011;9019;48.132;-1.210;2023-04-01T02:23:08;12.77;;;1.60;;
17790;SDS011;9019;48.132;-1.210;2023-04-01T02:25:36;19.20;;;2.97;;
17790;SDS011;9019;48.132;-1.210;2023-04-01T02:28:06;12.00;;;1.93;;
17790;SDS011;9019;48.132;-1.210;2023-04-01T02:30:34;12.33;;;2.10;;
17790;SDS011;9019;48.132;-1.210;2023-04-01T02:33:03;14.23;;;2.10;;
17790;SDS011;9019;48.132;-1.210;2023-04-01T02:35:30;11.87;;;2.00;;
17790;SDS011;9019;48.132;-1.210;2023-04-01T02:38:00;12.13;;;2.13;;
17790;SDS011;9019;48.132;-1.210;2023-04-01T02:40:27;11.73;;;1.97;;
17790;SDS011;9019;48.132;-1.210;2023-04-01T02:42:54;10.97;;;1.80;;
17790;SDS011;9019;48.132;-1.210;2023-04-01T02:45:23;11.33;;;2.00;;
17790;SDS011;9019;48.132;-1.210;2023-04-01T02:47:50;13.80;;;2.00;;
17790;SDS011;9019;48.132;-1.210;2023-04-01T02:50:17;9.50;;;1.73;;
17790;SDS011;9019;48.132;-1.210;2023-04-01T02:52:44;9.10;;;1.57;;
17790;SDS011;9019;48.132;-1.210;2023-04-01T02:55:12;10.57;;;1.80;;
17790;SDS011;9019;48.132;-1.210;2023-04-01T02:57:39;10.03;;;1.50;;
17790;SDS011;9019;48.132;-1.210;2023-04-01T03:00:07;9.80;;;1.93;;
17790;SDS011;9019;48.132;-1.210;2023-04-01T03:02:38;9.43;;;1.70;;
17790;SDS011;9019;48.132;-1.210;2023-04-01T03:05:05;13.13;;;1.83;;
17790;SDS011;9019;48.132;-1.210;2023-04-01T03:07:32;12.50;;;1.97;;
17790;SDS011;9019;48.132;-1.210;2023-04-01T03:10:00;9.43;;;1.63;;
17790;SDS011;9019;48.132;-1.210;2023-04-01T03:12:27;12.67;;;1.73;;
17790;SDS011;9019;48.132;-1.210;2023-04-01T03:14:54;10.77;;;1.83;;
17790;SDS011;9019;48.132;-1.210;2023-04-01T03:17:21;10.73;;;1.70;;
17790;SDS011;9019;48.132;-1.210;2023-04-01T03:19:50;9.67;;;1.87;;
17790;SDS011;9019;48.132;-1.210;2023-04-01T03:22:17;7.70;;;1.37;;
17790;SDS011;9019;48.132;-1.210;2023-04-01T03:24:46;8.07;;;1.63;;
17790;SDS011;9019;48.132;-1.210;2023-04-01T03:27:13;8.40;;;1.70;;
17790;SDS011;9019;48.132;-1.210;2023-04-01T03:29:40;13.67;;;1.40;;
17790;SDS011;9019;48.132;-1.210;2023-04-01T03:32:07;8.97;;;1.77;;
17790;SDS011;9019;48.132;-1.210;2023-04-01T03:34:34;9.77;;;1.27;;
17790;SDS011;9019;48.132;-1.210;2023-04-01T03:37:03;8.47;;;1.73;;
17790;SDS011;9019;48.132;-1.210;2023-04-01T03:39:30;10.93;;;1.60;;
17790;SDS011;9019;48.132;-1.210;2023-04-01T03:41:58;12.73;;;1.67;;
17790;SDS011;9019;48.132;-1.210;2023-04-01T03:44:25;10.43;;;2.00;;
17790;SDS011;9019;48.132;-1.210;2023-04-01T03:46:53;9.90;;;1.23;;
17790;SDS011;9019;48.132;-1.210;2023-04-01T03:49:20;11.17;;;1.70;;
17790;SDS011;9019;48.132;-1.210;2023-04-01T03:51:47;11.47;;;2.03;;
17790;SDS011;9019;48.132;-1.210;2023-04-01T03:54:16;10.90;;;1.63;;
17790;SDS011;9019;48.132;-1.210;2023-04-01T03:56:45;9.97;;;1.67;;
17790;SDS011;9019;48.132;-1.210;2023-04-01T03:59:12;8.97;;;1.60;;
17790;SDS011;9019;48.132;-1.210;2023-04-01T04:01:40;9.33;;;1.70;;
17790;SDS011;9019;48.132;-1.210;2023-04-01T04:04:07;10.03;;;1.83;;
17790;SDS011;9019;48.132;-1.210;2023-04-01T04:06:34;9.43;;;1.60;;
17790;SDS011;9019;48.132;-1.210;2023-04-01T04:09:02;9.67;;;1.90;;
17790;SDS011;9019;48.132;-1.210;2023-04-01T04:11:30;11.33;;;1.53;;
17790;SDS011;9019;48.132;-1.210;2023-04-01T04:13:58;9.03;;;1.43;;
17790;SDS011;9019;48.132;-1.210;2023-04-01T04:16:25;10.77;;;1.60;;
17790;SDS011;9019;48.132;-1.210;2023-04-01T04:18:52;11.33;;;1.67;;
17790;SDS011;9019;48.132;-1.210;2023-04-01T04:21:19;15.37;;;2.07;;
17790;SDS011;9019;48.132;-1.210;2023-04-01T04:23:47;9.10;;;1.77;;
17790;SDS011;9019;48.132;-1.210;2023-04-01T04:26:15;10.83;;;1.77;;
17790;SDS011;9019;48.132;-1.210;2023-04-01T04:28:44;8.63;;;1.77;;
17790;SDS011;9019;48.132;-1.210;2023-04-01T04:31:11;8.73;;;1.57;;
17790;SDS011;9019;48.132;-1.210;2023-04-01T04:33:38;10.70;;;1.73;;
17790;SDS011;9019;48.132;-1.210;2023-04-01T04:36:06;8.63;;;1.50;;
17790;SDS011;9019;48.132;-1.210;2023-04-01T04:38:33;12.90;;;1.90;;
17790;SDS011;9019;48.132;-1.210;2023-04-01T04:41:00;7.30;;;1.27;;
17790;SDS011;9019;48.132;-1.210;2023-04-01T04:43:27;12.77;;;2.00;;
17790;SDS011;9019;48.132;-1.210;2023-04-01T04:45:56;10.17;;;1.90;;
17790;SDS011;9019;48.132;-1.210;2023-04-01T04:48:23;10.10;;;1.90;;
17790;SDS011;9019;48.132;-1.210;2023-04-01T04:50:50;10.03;;;1.93;;
17790;SDS011;9019;48.132;-1.210;2023-04-01T04:53:18;10.17;;;1.50;;
17790;SDS011;9019;48.132;-1.210;2023-04-01T04:55:45;9.70;;;1.73;;
17790;SDS011;9019;48.132;-1.210;2023-04-01T04:58:13;7.10;;;1.40;;
17790;SDS011;9019;48.132;-1.210;2023-04-01T05:00:40;9.83;;;1.80;;
17790;SDS011;9019;48.132;-1.210;2023-04-01T05:03:09;12.07;;;2.00;;
17790;SDS011;9019;48.132;-1.210;2023-04-01T05:05:36;7.47;;;1.50;;
17790;SDS011;9019;48.132;-1.210;2023-04-01T05:08:04;13.03;;;2.00;;
17790;SDS011;9019;48.132;-1.210;2023-04-01T05:10:31;11.33;;;2.03;;
17790;SDS011;9019;48.132;-1.210;2023-04-01T05:12:58;10.03;;;1.80;;
17790;SDS011;9019;48.132;-1.210;2023-04-01T05:15:25;10.37;;;2.00;;
17790;SDS011;9019;48.132;-1.210;2023-04-01T05:17:53;8.70;;;1.73;;
17790;SDS011;9019;48.132;-1.210;2023-04-01T05:20:21;11.03;;;2.10;;
17790;SDS011;9019;48.132;-1.210;2023-04-01T05:22:48;9.20;;;2.03;;
17790;SDS011;9019;48.132;-1.210;2023-04-01T05:25:15;11.63;;;1.83;;
17790;SDS011;9019;48.132;-1.210;2023-04-01T05:27:43;10.10;;;1.80;;
17790;SDS011;9019;48.132;-1.210;2023-04-01T05:30:10;13.57;;;2.30;;
17790;SDS011;9019;48.132;-1.210;2023-04-01T05:32:37;9.77;;;1.90;;
17790;SDS011;9019;48.132;-1.210;2023-04-01T05:35:05;11.20;;;2.20;;
17790;SDS011;9019;48.132;-1.210;2023-04-01T05:37:34;8.10;;;1.67;;
17790;SDS011;9019;48.132;-1.210;2023-04-01T05:40:02;11.20;;;2.13;;
17790;SDS011;9019;48.132;-1.210;2023-04-01T05:42:29;11.33;;;2.17;;
17790;SDS011;9019;48.132;-1.210;2023-04-01T05:44:57;8.93;;;1.87;;
17790;SDS011;9019;48.132;-1.210;2023-04-01T05:47:24;10.10;;;1.67;;
17790;SDS011;9019;48.132;-1.210;2023-04-01T05:49:51;11.47;;;2.20;;
17790;SDS011;9019;48.132;-1.210;2023-04-01T05:52:18;12.17;;;2.27;;
17790;SDS011;9019;48.132;-1.210;2023-04-01T05:54:47;8.50;;;1.93;;
17790;SDS011;9019;48.132;-1.210;2023-04-01T05:57:14;12.47;;;1.93;;
17790;SDS011;9019;48.132;-1.210;2023-04-01T05:59:41;8.17;;;1.87;;
17790;SDS011;9019;48.132;-1.210;2023-04-01T06:02:08;7.17;;;1.77;;
17790;SDS011;9019;48.132;-1.210;2023-04-01T06:04:37;7.67;;;1.67;;
17790;SDS011;9019;48.132;-1.210;2023-04-01T06:07:08;11.20;;;1.80;;
17790;SDS011;9019;48.132;-1.210;2023-04-01T06:09:37;10.93;;;2.67;;
17790;SDS011;9019;48.132;-1.210;2023-04-01T06:12:14;13.80;;;2.40;;
17790;SDS011;9019;48.132;-1.210;2023-04-01T06:14:45;9.90;;;1.90;;
17790;SDS011;9019;48.132;-1.210;2023-04-01T06:17:19;12.40;;;2.37;;
17790;SDS011;9019;48.132;-1.210;2023-04-01T06:19:51;10.47;;;2.10;;
17790;SDS011;9019;48.132;-1.210;2023-04-01T06:22:39;9.07;;;1.73;;
17790;SDS011;9019;48.132;-1.210;2023-04-01T06:25:14;8.20;;;2.17;;
17790;SDS011;9019;48.132;-1.210;2023-04-01T06:27:48;11.87;;;2.40;;
17790;SDS011;9019;48.132;-1.210;2023-04-01T06:30:29;11.17;;;2.03;;
17790;SDS011;9019;48.132;-1.210;2023-04-01T06:33:07;9.13;;;2.00;;
17790;SDS011;9019;48.132;-1.210;2023-04-01T06:44:04;6.80;;;1.70;;
17790;SDS011;9019;48.132;-1.210;2023-04-01T06:46:37;8.33;;;1.43;;
17790;SDS011;9019;48.132;-1.210;2023-04-01T06:49:20;9.67;;;1.83;;
17790;SDS011;9019;48.132;-1.210;2023-04-01T06:51:50;7.50;;;1.60;;
17790;SDS011;9019;48.132;-1.210;2023-04-01T06:54:20;9.23;;;1.60;;
17790;SDS011;9019;48.132;-1.210;2023-04-01T06:56:49;12.00;;;2.13;;
17790;SDS011;9019;48.132;-1.210;2023-04-01T06:59:19;10.53;;;1.93;;
17790;SDS011;9019;48.132;-1.210;2023-04-01T07:01:47;15.70;;;2.03;;
17790;SDS011;9019;48.132;-1.210;2023-04-01T07:04:17;12.00;;;2.67;;
17790;SDS011;9019;48.132;-1.210;2023-04-01T07:06:47;13.77;;;2.97;;
17790;SDS011;9019;48.132;-1.210;2023-04-01T07:09:16;8.73;;;1.57;;
17790;SDS011;9019;48.132;-1.210;2023-04-01T07:11:45;15.47;;;2.10;;
17790;SDS011;9019;48.132;-1.210;2023-04-01T07:14:13;9.97;;;1.70;;
17790;SDS011;9019;48.132;-1.210;2023-04-01T07:16:46;12.23;;;2.37;;
17790;SDS011;9019;48.132;-1.210;2023-04-01T07:19:16;9.60;;;2.53;;
17790;SDS011;9019;48.132;-1.210;2023-04-01T07:21:46;9.30;;;2.20;;
17790;SDS011;9019;48.132;-1.210;2023-04-01T07:24:16;9.03;;;2.43;;
17790;SDS011;9019;48.132;-1.210;2023-04-01T07:26:46;7.85;;;2.25;;
17790;SDS011;9019;48.132;-1.210;2023-04-01T07:29:14;5.55;;;2.03;;
17790;SDS011;9019;48.132;-1.210;2023-04-01T07:31:48;9.85;;;2.30;;
17790;SDS011;9019;48.132;-1.210;2023-04-01T07:34:19;6.05;;;1.75;;
17790;SDS011;9019;48.132;-1.210;2023-04-01T07:36:49;6.70;;;2.35;;
17790;SDS011;9019;48.132;-1.210;2023-04-01T07:39:23;9.82;;;2.05;;
17790;SDS011;9019;48.132;-1.210;2023-04-01T07:41:55;9.98;;;2.45;;
17790;SDS011;9019;48.132;-1.210;2023-04-01T07:44:28;7.97;;;2.10;;
17790;SDS011;9019;48.132;-1.210;2023-04-01T07:47:08;7.90;;;1.88;;
17790;SDS011;9019;48.132;-1.210;2023-04-01T07:49:40;9.13;;;1.70;;
17790;SDS011;9019;48.132;-1.210;2023-04-01T07:52:11;9.73;;;1.90;;
17790;SDS011;9019;48.132;-1.210;2023-04-01T07:54:41;7.60;;;1.67;;
17790;SDS011;9019;48.132;-1.210;2023-04-01T07:57:14;5.57;;;1.70;;
17790;SDS011;9019;48.132;-1.210;2023-04-01T07:59:45;5.25;;;1.65;;
17790;SDS011;9019;48.132;-1.210;2023-04-01T08:02:23;9.30;;;1.80;;
17790;SDS011;9019;48.132;-1.210;2023-04-01T08:04:55;7.00;;;1.60;;
17790;SDS011;9019;48.132;-1.210;2023-04-01T08:07:25;9.30;;;1.73;;
17790;SDS011;9019;48.132;-1.210;2023-04-01T08:09:59;8.35;;;1.75;;
17790;SDS011;9019;48.132;-1.210;2023-04-01T08:12:31;9.73;;;1.88;;
17790;SDS011;9019;48.132;-1.210;2023-04-01T08:15:06;10.80;;;1.97;;
17790;SDS011;9019;48.132;-1.210;2023-04-01T08:17:38;8.37;;;2.10;;
17790;SDS011;9019;48.132;-1.210;2023-04-01T08:20:13;8.87;;;2.20;;
17790;SDS011;9019;48.132;-1.210;2023-04-01T08:22:42;8.70;;;1.67;;
17790;SDS011;9019;48.132;-1.210;2023-04-01T08:25:10;9.00;;;1.90;;
17790;SDS011;9019;48.132;-1.210;2023-04-01T08:27:41;11.33;;;1.90;;
17790;SDS011;9019;48.132;-1.210;2023-04-01T08:30:15;9.17;;;1.70;;
17790;SDS011;9019;48.132;-1.210;2023-04-01T08:32:46;6.10;;;1.40;;
17790;SDS011;9019;48.132;-1.210;2023-04-01T08:35:16;8.17;;;1.80;;
17790;SDS011;9019;48.132;-1.210;2023-04-01T08:37:44;9.00;;;2.17;;
17790;SDS011;9019;48.132;-1.210;2023-04-01T08:40:37;7.13;;;1.60;;
17790;SDS011;9019;48.132;-1.210;2023-04-01T08:43:09;10.40;;;1.80;;
17790;SDS011;9019;48.132;-1.210;2023-04-01T08:45:44;7.70;;;1.73;;
17790;SDS011;9019;48.132;-1.210;2023-04-01T08:48:25;9.23;;;1.80;;
17790;SDS011;9019;48.132;-1.210;2023-04-01T08:51:13;8.57;;;1.80;;
17790;SDS011;9019;48.132;-1.210;2023-04-01T08:53:51;10.73;;;1.90;;
17790;SDS011;9019;48.132;-1.210;2023-04-01T08:56:25;5.63;;;1.33;;
17790;SDS011;9019;48.132;-1.210;2023-04-01T08:59:03;7.80;;;1.60;;
17790;SDS011;9019;48.132;-1.210;2023-04-01T09:04:24;9.32;;;1.60;;
17790;SDS011;9019;48.132;-1.210;2023-04-01T09:07:01;6.53;;;1.50;;
17790;SDS011;9019;48.132;-1.210;2023-04-01T09:09:44;8.20;;;1.70;;
17790;SDS011;9019;48.132;-1.210;2023-04-01T09:17:52;9.70;;;1.75;;
17790;SDS011;9019;48.132;-1.210;2023-04-01T09:20:32;5.40;;;1.17;;
17790;SDS011;9019;48.132;-1.210;2023-04-01T09:23:14;8.57;;;1.90;;
17790;SDS011;9019;48.132;-1.210;2023-04-01T09:25:52;11.60;;;2.13;;
17790;SDS011;9019;48.132;-1.210;2023-04-01T09:28:22;8.80;;;1.83;;
17790;SDS011;9019;48.132;-1.210;2023-04-01T09:30:58;8.85;;;1.80;;
17790;SDS011;9019;48.132;-1.210;2023-04-01T09:36:24;7.95;;;1.60;;
17790;SDS011;9019;48.132;-1.210;2023-04-01T09:38:56;8.20;;;1.48;;
17790;SDS011;9019;48.132;-1.210;2023-04-01T09:41:27;7.47;;;1.60;;
17790;SDS011;9019;48.132;-1.210;2023-04-01T09:43:58;7.67;;;1.50;;
17790;SDS011;9019;48.132;-1.210;2023-04-01T09:46:31;6.17;;;1.40;;
17790;SDS011;9019;48.132;-1.210;2023-04-01T09:51:55;5.67;;;1.17;;
17790;SDS011;9019;48.132;-1.210;2023-04-01T09:54:32;9.13;;;1.60;;
17790;SDS011;9019;48.132;-1.210;2023-04-01T10:00:16;6.33;;;1.53;;
17790;SDS011;9019;48.132;-1.210;2023-04-01T10:03:00;6.83;;;1.50;;
17790;SDS011;9019;48.132;-1.210;2023-04-01T10:05:48;6.83;;;1.53;;
17790;SDS011;9019;48.132;-1.210;2023-04-01T10:14:16;7.85;;;1.92;;
17790;SDS011;9019;48.132;-1.210;2023-04-01T10:19:38;6.90;;;1.17;;
17790;SDS011;9019;48.132;-1.210;2023-04-01T10:22:24;4.03;;;1.15;;
17790;SDS011;9019;48.132;-1.210;2023-04-01T10:50:31;7.70;;;1.50;;
17790;SDS011;9019;48.132;-1.210;2023-04-01T10:53:22;6.60;;;1.95;;
17790;SDS011;9019;48.132;-1.210;2023-04-01T11:01:51;7.43;;;1.63;;
17790;SDS011;9019;48.132;-1.210;2023-04-01T11:04:37;9.50;;;1.55;;
17790;SDS011;9019;48.132;-1.210;2023-04-01T11:07:21;5.30;;;1.17;;
17790;SDS011;9019;48.132;-1.210;2023-04-01T11:12:44;6.78;;;1.23;;
17790;SDS011;9019;48.132;-1.210;2023-04-01T11:15:31;3.97;;;1.20;;
17790;SDS011;9019;48.132;-1.210;2023-04-01T11:23:43;6.45;;;1.60;;
17790;SDS011;9019;48.132;-1.210;2023-04-01T11:26:16;8.50;;;1.42;;
17790;SDS011;9019;48.132;-1.210;2023-04-01T11:28:54;6.45;;;1.02;;
17790;SDS011;9019;48.132;-1.210;2023-04-01T11:31:34;4.35;;;1.17;;
17790;SDS011;9019;48.132;-1.210;2023-04-01T11:34:04;4.70;;;1.15;;
17790;SDS011;9019;48.132;-1.210;2023-04-01T11:36:37;3.88;;;0.90;;
17790;SDS011;9019;48.132;-1.210;2023-04-01T11:39:14;3.72;;;1.00;;
17790;SDS011;9019;48.132;-1.210;2023-04-01T11:41:49;2.92;;;1.02;;
17790;SDS011;9019;48.132;-1.210;2023-04-01T11:44:18;5.03;;;0.80;;
17790;SDS011;9019;48.132;-1.210;2023-04-01T11:49:44;5.15;;;1.08;;
17790;SDS011;9019;48.132;-1.210;2023-04-01T11:52:18;3.58;;;0.90;;
17790;SDS011;9019;48.132;-1.210;2023-04-01T11:57:44;4.05;;;1.00;;
17790;SDS011;9019;48.132;-1.210;2023-04-01T12:00:20;5.22;;;1.10;;
17790;SDS011;9019;48.132;-1.210;2023-04-01T12:02:50;2.38;;;0.75;;
17790;SDS011;9019;48.132;-1.210;2023-04-01T12:05:34;3.20;;;0.73;;
17790;SDS011;9019;48.132;-1.210;2023-04-01T12:08:14;3.63;;;0.80;;
17790;SDS011;9019;48.132;-1.210;2023-04-01T12:10:44;1.83;;;0.40;;
17790;SDS011;9019;48.132;-1.210;2023-04-01T12:13:18;3.50;;;0.70;;
17790;SDS011;9019;48.132;-1.210;2023-04-01T12:15:52;2.63;;;0.60;;
17790;SDS011;9019;48.132;-1.210;2023-04-01T12:18:22;3.43;;;0.83;;
17790;SDS011;9019;48.132;-1.210;2023-04-01T12:20:51;3.07;;;0.70;;
17790;SDS011;9019;48.132;-1.210;2023-04-01T12:23:29;2.13;;;0.67;;
17790;SDS011;9019;48.132;-1.210;2023-04-01T12:28:52;3.67;;;0.87;;
17790;SDS011;9019;48.132;-1.210;2023-04-01T12:31:27;4.70;;;0.97;;
17790;SDS011;9019;48.132;-1.210;2023-04-01T12:36:45;4.33;;;0.87;;
17790;SDS011;9019;48.132;-1.210;2023-04-01T12:39:22;3.10;;;0.70;;
17790;SDS011;9019;48.132;-1.210;2023-04-01T12:41:53;2.40;;;0.70;;
17790;SDS011;9019;48.132;-1.210;2023-04-01T12:47:12;3.93;;;0.80;;
17790;SDS011;9019;48.132;-1.210;2023-04-01T12:49:52;8.90;;;1.30;;
17790;SDS011;9019;48.132;-1.210;2023-04-01T12:52:23;4.68;;;0.90;;
17790;SDS011;9019;48.132;-1.210;2023-04-01T12:57:45;4.68;;;0.98;;
17790;SDS011;9019;48.132;-1.210;2023-04-01T13:00:29;5.93;;;1.50;;
17790;SDS011;9019;48.132;-1.210;2023-04-01T13:03:03;5.43;;;1.10;;
17790;SDS011;9019;48.132;-1.210;2023-04-01T13:05:38;4.75;;;1.17;;
17790;SDS011;9019;48.132;-1.210;2023-04-01T13:08:17;7.07;;;1.20;;
17790;SDS011;9019;48.132;-1.210;2023-04-01T13:11:02;6.97;;;1.20;;
17790;SDS011;9019;48.132;-1.210;2023-04-01T13:16:19;7.10;;;1.30;;
17790;SDS011;9019;48.132;-1.210;2023-04-01T13:18:54;8.20;;;1.25;;
17790;SDS011;9019;48.132;-1.210;2023-04-01T13:21:25;7.50;;;1.70;;
17790;SDS011;9019;48.132;-1.210;2023-04-01T13:23:56;6.57;;;1.58;;
17790;SDS011;9019;48.132;-1.210;2023-04-01T13:26:28;6.90;;;1.33;;
17790;SDS011;9019;48.132;-1.210;2023-04-01T13:28:59;6.82;;;1.27;;
17790;SDS011;9019;48.132;-1.210;2023-04-01T13:31:36;9.27;;;1.48;;
17790;SDS011;9019;48.132;-1.210;2023-04-01T13:34:17;11.23;;;2.05;;
17790;SDS011;9019;48.132;-1.210;2023-04-01T13:36:52;8.00;;;1.48;;
17790;SDS011;9019;48.132;-1.210;2023-04-01T13:39:28;8.38;;;2.05;;
17790;SDS011;9019;48.132;-1.210;2023-04-01T13:42:11;7.78;;;1.73;;
17790;SDS011;9019;48.132;-1.210;2023-04-01T13:44:41;12.15;;;2.05;;
17790;SDS011;9019;48.132;-1.210;2023-04-01T13:47:17;9.25;;;2.03;;
17790;SDS011;9019;48.132;-1.210;2023-04-01T13:50:03;8.93;;;1.60;;
17790;SDS011;9019;48.132;-1.210;2023-04-01T13:52:38;9.67;;;2.00;;
17790;SDS011;9019;48.132;-1.210;2023-04-01T13:55:18;11.10;;;1.75;;
17790;SDS011;9019;48.132;-1.210;2023-04-01T13:57:50;7.43;;;1.83;;
17790;SDS011;9019;48.132;-1.210;2023-04-01T14:00:23;9.60;;;2.00;;
17790;SDS011;9019;48.132;-1.210;2023-04-01T14:05:50;8.77;;;1.88;;
17790;SDS011;9019;48.132;-1.210;2023-04-01T14:08:26;6.68;;;1.38;;
17790;SDS011;9019;48.132;-1.210;2023-04-01T14:10:59;7.35;;;1.63;;
17790;SDS011;9019;48.132;-1.210;2023-04-01T14:13:31;6.72;;;1.67;;
17790;SDS011;9019;48.132;-1.210;2023-04-01T14:16:08;7.22;;;1.25;;
17790;SDS011;9019;48.132;-1.210;2023-04-01T14:18:42;7.88;;;1.58;;
17790;SDS011;9019;48.132;-1.210;2023-04-01T14:21:25;7.30;;;1.30;;
17790;SDS011;9019;48.132;-1.210;2023-04-01T14:23:59;9.23;;;1.70;;
17790;SDS011;9019;48.132;-1.210;2023-04-01T14:26:30;9.05;;;1.75;;
17790;SDS011;9019;48.132;-1.210;2023-04-01T14:29:02;6.85;;;1.90;;
17790;SDS011;9019;48.132;-1.210;2023-04-01T14:31:38;10.00;;;1.50;;
17790;SDS011;9019;48.132;-1.210;2023-04-01T14:34:11;7.88;;;1.67;;
17790;SDS011;9019;48.132;-1.210;2023-04-01T14:36:52;6.53;;;1.40;;
17790;SDS011;9019;48.132;-1.210;2023-04-01T14:39:29;9.75;;;1.83;;
17790;SDS011;9019;48.132;-1.210;2023-04-01T14:42:04;5.75;;;1.40;;
17790;SDS011;9019;48.132;-1.210;2023-04-01T14:44:37;8.55;;;1.70;;
17790;SDS011;9019;48.132;-1.210;2023-04-01T14:47:25;8.75;;;1.70;;
17790;SDS011;9019;48.132;-1.210;2023-04-01T14:50:02;10.50;;;1.70;;
17790;SDS011;9019;48.132;-1.210;2023-04-01T14:52:32;7.07;;;1.38;;
17790;SDS011;9019;48.132;-1.210;2023-04-01T14:55:00;8.80;;;1.65;;
17790;SDS011;9019;48.132;-1.210;2023-04-01T14:57:28;6.97;;;1.50;;
17790;SDS011;9019;48.132;-1.210;2023-04-01T14:59:59;15.57;;;2.67;;
17790;SDS011;9019;48.132;-1.210;2023-04-01T15:02:32;8.10;;;1.30;;
17790;SDS011;9019;48.132;-1.210;2023-04-01T15:05:03;8.00;;;1.48;;
17790;SDS011;9019;48.132;-1.210;2023-04-01T15:07:45;6.43;;;1.35;;
17790;SDS011;9019;48.132;-1.210;2023-04-01T15:10:24;6.95;;;1.30;;
17790;SDS011;9019;48.132;-1.210;2023-04-01T15:12:58;6.38;;;1.10;;
17790;SDS011;9019;48.132;-1.210;2023-04-01T15:15:35;7.00;;;1.40;;
17790;SDS011;9019;48.132;-1.210;2023-04-01T15:18:08;7.50;;;1.20;;
17790;SDS011;9019;48.132;-1.210;2023-04-01T15:20:42;6.00;;;1.10;;
17790;SDS011;9019;48.132;-1.210;2023-04-01T15:23:27;5.40;;;0.88;;
17790;SDS011;9019;48.132;-1.210;2023-04-01T15:26:05;6.32;;;1.10;;
17790;SDS011;9019;48.132;-1.210;2023-04-01T15:28:36;7.03;;;1.20;;
17790;SDS011;9019;48.132;-1.210;2023-04-01T15:31:06;31.20;;;2.57;;
17790;SDS011;9019;48.132;-1.210;2023-04-01T15:33:49;6.90;;;1.30;;
17790;SDS011;9019;48.132;-1.210;2023-04-01T15:36:24;8.57;;;1.47;;
17790;SDS011;9019;48.132;-1.210;2023-04-01T15:38:55;6.60;;;1.35;;
17790;SDS011;9019;48.132;-1.210;2023-04-01T15:41:28;9.80;;;1.40;;
17790;SDS011;9019;48.132;-1.210;2023-04-01T15:44:01;12.85;;;1.70;;
17790;SDS011;9019;48.132;-1.210;2023-04-01T15:49:20;7.67;;;1.20;;
17790;SDS011;9019;48.132;-1.210;2023-04-01T15:51:56;7.33;;;1.50;;
17790;SDS011;9019;48.132;-1.210;2023-04-01T15:54:27;9.63;;;1.73;;
17790;SDS011;9019;48.132;-1.210;2023-04-01T15:57:03;9.83;;;1.70;;
17790;SDS011;9019;48.132;-1.210;2023-04-01T15:59:39;8.90;;;1.63;;
17790;SDS011;9019;48.132;-1.210;2023-04-01T16:02:10;9.60;;;1.50;;
17790;SDS011;9019;48.132;-1.210;2023-04-01T16:04:51;8.30;;;1.40;;
17790;SDS011;9019;48.132;-1.210;2023-04-01T16:07:24;9.07;;;1.47;;
17790;SDS011;9019;48.132;-1.210;2023-04-01T16:10:01;7.17;;;1.50;;
17790;SDS011;9019;48.132;-1.210;2023-04-01T16:12:35;10.43;;;1.67;;
17790;SDS011;9019;48.132;-1.210;2023-04-01T16:15:08;10.33;;;1.43;;
17790;SDS011;9019;48.132;-1.210;2023-04-01T16:17:53;7.00;;;1.50;;
17790;SDS011;9019;48.132;-1.210;2023-04-01T16:20:23;9.67;;;1.53;;
17790;SDS011;9019;48.132;-1.210;2023-04-01T16:22:53;8.20;;;1.67;;
17790;SDS011;9019;48.132;-1.210;2023-04-01T16:25:29;8.70;;;1.77;;
17790;SDS011;9019;48.132;-1.210;2023-04-01T16:28:03;9.40;;;1.67;;
17790;SDS011;9019;48.132;-1.210;2023-04-01T16:30:36;6.43;;;1.40;;
17790;SDS011;9019;48.132;-1.210;2023-04-01T16:33:05;7.27;;;1.17;;
17790;SDS011;9019;48.132;-1.210;2023-04-01T16:35:40;9.23;;;1.70;;
17790;SDS011;9019;48.132;-1.210;2023-04-01T16:38:11;6.47;;;1.03;;
17790;SDS011;9019;48.132;-1.210;2023-04-01T16:40:46;6.57;;;1.00;;
17790;SDS011;9019;48.132;-1.210;2023-04-01T16:43:16;6.27;;;1.03;;
17790;SDS011;9019;48.132;-1.210;2023-04-01T16:45:51;6.07;;;1.30;;
17790;SDS011;9019;48.132;-1.210;2023-04-01T16:48:20;7.50;;;1.63;;
17790;SDS011;9019;48.132;-1.210;2023-04-01T16:50:51;5.83;;;1.40;;